Hutchinson County Airport - Borger, Texas, United States - FAA: BGD - ICAO: KBGD - IATA: BGD

 
  Longest Runway: 6,300 feet   Approach Types:    Customs Landing Rights Airport: No   Port of Entry: No

Local Forecast

This Afternoon (4/16): Mostly sunny, with a high near 74. West southwest wind around 15 mph becoming northeast. Winds could gust as high as 25 mph.

Tonight (4/16): A 40 percent chance of showers, mainly after 1am. Mostly cloudy, with a low around 41. North northeast wind 15 to 20 mph, with gusts as high as 25 mph.

Thursday (4/17): A 30 percent chance of showers before 1pm. Mostly cloudy, with a high near 57. North northeast wind 10 to 15 mph, with gusts as high as 20 mph.

Thursday Night (4/17): Partly cloudy, with a low around 43. East wind around 10 mph becoming south after midnight.

Friday (4/18): Partly sunny, with a high near 75. South wind 5 to 15 mph.

Friday Night (4/18): Mostly cloudy, with a low around 50. South wind 15 to 20 mph, with gusts as high as 25 mph.

Saturday (4/19): A 30 percent chance of showers and thunderstorms, mainly after 1pm. Mostly cloudy, with a high near 74. Breezy, with a south wind 15 to 25 mph, with gusts as high as 35 mph.



Current Weather (METAR)

2014/04/16 15:51 KBGD 161551Z AUTO 28006KT 10SM CLR 17/M12 A2983 RMK AO2 SLP078 T01671122

BORGER HUTCHINSON CO AIRPORT , TX, United States (KBGD) 35-42N 101-24W 927M Apr 16, 2014 - 11:51 AM EDT / 2014.04.16 1551 UTC Wind: from the W (280 degrees) at 7 MPH (6 KT):0 Visibility: 10 mile(s):0 Sky conditions: clear Temperature: 62.1 F (16.7 C) Dew Point: 10.0 F (-12.2 C) Relative Humidity: 12% Pressure (altimeter): 29.83 in. Hg (1010 hPa) ob: KBGD 161551Z AUTO 28006KT 10SM CLR 17/M12 A2983 RMK AO2 SLP078 T01671122 cycle: 16

Terminal Forecast (TAF)